Terminal Aerodrome Forecast
Issued by NWS Sterling, VA

Home | Current Version | Previous Version | Text Only | Print | Product List | Glossary On
Versions: 1 2 3 4 5 6 7 8 9 10 11 12 13 14 15 16 17 18 19 20 21 22 23 24 25 26 27 28 29 30 31 32 33 34 35 36 37 38
000
FTUS41 KLWX 050830 AAV
TAFMRB
TAF AMD
KMRB 050830Z 0509/0606 VRB03KT P6SM SCT035 BKN045
     FM051000 VRB03KT 3SM BR SCT030 OVC045
     FM051200 VRB03KT P6SM VCSH SCT001 OVC008
     FM051600 24005KT P6SM VCTS SCT015CB OVC020
     FM051900 24005KT P6SM VCTS SCT040CB OVC045
     FM060000 19004KT P6SM SCT120 BKN140=

USA.gov is the U.S. government's official web portal to all federal, state and local government web resources and services.